Time;durP1;ratioP1;P1;durP2;ratioP2;P2;SDS_P1;SDS_P2;PMS_P1;PMS_P2;Temp;Humidity;BMP_temperature;BMP_pressure;BME280_temperature;BME280_humidity;BME280_pressure;Samples;Min_cycle;Max_cycle;Signal;HPM_P1;HPM_P2
2021/05/21 00:00:19;;;;;;;1999.90;999.90;;;;;;;14.18;59.24;100820.72;15789195;28;20294;-57
2021/05/21 00:07:52;;;;;;;1999.90;999.90;;;;;;;14.23;59.26;100816.81;15807484;28;20144;-57
2021/05/21 00:15:23;;;;;;;1999.90;999.90;;;;;;;14.28;59.33;100819.41;15790920;28;20036;-54
2021/05/21 00:22:56;;;;;;;1999.90;999.90;;;;;;;14.41;59.57;100798.53;15806165;28;20070;-57
2021/05/21 00:30:27;;;;;;;1999.90;999.90;;;;;;;14.37;59.50;100789.97;15770986;28;20132;-58
2021/05/21 00:38:00;;;;;;;1999.90;999.90;;;;;;;14.38;59.88;100785.19;15770907;28;20156;-57
2021/05/21 00:45:31;;;;;;;1999.90;999.90;;;;;;;14.36;60.64;100771.50;15805423;28;20036;-61
2021/05/21 00:53:05;;;;;;;1999.90;999.90;;;;;;;14.21;60.50;100754.63;15786858;28;20048;-58
2021/05/21 01:00:36;;;;;;;1999.90;999.90;;;;;;;13.88;61.62;100736.03;15805108;28;20047;-58
2021/05/21 01:08:09;;;;;;;1999.90;999.90;;;;;;;14.01;61.41;100732.00;15770297;28;20044;-57
2021/05/21 01:15:42;;;;;;;1999.90;999.90;;;;;;;14.03;61.78;100712.00;15785737;28;20044;-54
2021/05/21 01:23:14;;;;;;;1999.90;999.90;;;;;;;13.91;62.58;100695.22;15785603;28;20052;-60
2021/05/21 01:30:47;;;;;;;1999.90;999.90;;;;;;;13.87;62.88;100683.91;15769075;28;20055;-60
2021/05/21 01:38:19;;;;;;;1999.90;999.90;;;;;;;13.74;63.30;100683.13;15784545;28;20048;-57
2021/05/21 01:45:51;;;;;;;1999.90;999.90;;;;;;;13.89;63.22;100670.34;15784311;28;20044;-57
2021/05/21 01:53:23;;;;;;;1999.90;999.90;;;;;;;13.86;63.33;100671.88;15767585;28;20051;-56
2021/05/21 02:00:55;;;;;;;1999.90;999.90;;;;;;;13.85;63.58;100652.59;15782993;28;20044;-57
2021/05/21 02:08:28;;;;;;;1999.90;999.90;;;;;;;13.77;63.80;100631.94;15800910;28;20066;-53
2021/05/21 02:15:59;;;;;;;1999.90;999.90;;;;;;;13.94;63.63;100621.56;15764708;28;20127;-55
2021/05/21 02:23:33;;;;;;;1999.90;999.90;;;;;;;13.88;63.47;100612.63;15799480;28;20056;-54
2021/05/21 02:31:04;;;;;;;1999.90;999.90;;;;;;;13.63;64.26;100599.88;15780744;28;20127;-54
2021/05/21 02:38:37;;;;;;;1999.90;999.90;;;;;;;13.71;64.04;100591.31;15798510;28;20404;-60
2021/05/21 02:46:08;;;;;;;1999.90;999.90;;;;;;;13.68;64.05;100586.41;15763206;28;20424;-56
2021/05/21 02:53:41;;;;;;;1999.90;999.90;;;;;;;13.69;63.95;100574.03;15798537;28;20569;-59
2021/05/21 03:01:12;;;;;;;1999.90;999.90;;;;;;;13.70;63.79;100569.22;15798316;28;20105;-59
2021/05/21 03:08:45;;;;;;;1999.90;999.90;;;;;;;13.88;63.35;100561.31;15781094;28;20124;-60
2021/05/21 03:16:16;;;;;;;1999.90;999.90;;;;;;;13.75;63.46;100558.56;15797474;28;20334;-61
2021/05/21 03:23:49;;;;;;;1999.90;999.90;;;;;;;13.76;63.75;100545.38;15798598;28;20059;-59
2021/05/21 03:31:20;;;;;;;1999.90;999.90;;;;;;;13.82;63.63;100536.31;15771111;28;20064;-58
2021/05/21 03:38:55;;;;;;;1999.90;999.90;;;;;;;13.61;64.00;100538.53;15774631;28;20174;-56
2021/05/21 03:46:27;;;;;;;1999.90;999.90;;;;;;;13.33;64.63;100527.31;15808100;28;20397;-58
2021/05/21 03:54:00;;;;;;;1999.90;999.90;;;;;;;13.42;64.67;100527.19;15773842;28;20044;-61
2021/05/21 04:01:32;;;;;;;1999.90;999.90;;;;;;;13.16;65.11;100514.41;15790197;28;20048;-58
2021/05/21 04:09:06;;;;;;;1999.90;999.90;;;;;;;13.23;65.17;100520.28;15807547;28;20236;-65
2021/05/21 04:16:38;;;;;;;1999.90;999.90;;;;;;;13.23;65.18;100508.22;15806758;28;20052;-63
2021/05/21 04:24:11;;;;;;;1999.90;999.90;;;;;;;13.56;64.36;100491.16;15806930;28;20449;-64
2021/05/21 04:31:43;;;;;;;1999.90;999.90;;;;;;;13.68;64.19;100490.28;15814343;28;20044;-63
2021/05/21 04:39:15;;;;;;;1999.90;999.90;;;;;;;13.79;64.19;100478.16;15797044;28;20036;-64
2021/05/21 04:47:03;;;;;;;1999.90;999.90;;;;;;;13.96;63.68;100459.34;15836910;22;20062;-83
2021/05/21 04:54:55;;;;;;;1999.90;999.90;;;;;;;14.46;62.55;100466.19;15826704;28;20190;-80
2021/05/21 05:02:27;;;;;;;1999.90;999.90;;;;;;;14.33;62.69;100446.63;15833875;22;20571;-63
2021/05/21 05:09:59;;;;;;;1999.90;999.90;;;;;;;14.68;61.72;100434.63;15808637;28;20064;-61
2021/05/21 05:17:31;;;;;;;1999.90;999.90;;;;;;;14.99;60.33;100423.25;15807979;28;20044;-62
2021/05/21 05:25:04;;;;;;;1999.90;999.90;;;;;;;15.87;58.02;100422.53;15805555;28;20040;-61
2021/05/21 05:32:36;;;;;;;1999.90;999.90;;;;;;;16.40;55.84;100406.50;15807381;28;20082;-60
2021/05/21 05:40:09;;;;;;;1999.90;999.90;;;;;;;17.42;53.88;100379.19;15805457;28;20040;-60
2021/05/21 05:47:40;;;;;;;1999.90;999.90;;;;;;;18.45;51.30;100382.88;15805233;28;20129;-62
2021/05/21 05:55:13;;;;;;;1999.90;999.90;;;;;;;17.81;52.04;100377.53;15804857;28;20127;-63
2021/05/21 06:02:45;;;;;;;1999.90;999.90;;;;;;;18.75;49.34;100366.47;15805642;28;20048;-63
2021/05/21 06:10:17;;;;;;;1999.90;999.90;;;;;;;18.41;49.91;100362.25;15804374;28;20040;-63
2021/05/21 06:17:52;;;;;;;1999.90;999.90;;;;;;;18.50;49.14;100350.59;15804706;28;20131;-61
2021/05/21 06:25:38;;;;;;;1999.90;999.90;;;;;;;17.64;51.06;100337.88;15786674;28;20087;-62
2021/05/21 06:33:10;;;;;;;1999.90;999.90;;;;;;;18.26;49.51;100318.19;15803115;28;20067;-62
2021/05/21 06:40:42;;;;;;;1999.90;999.90;;;;;;;18.50;48.68;100309.03;15786077;28;20060;-61
2021/05/21 06:48:16;;;;;;;1999.90;999.90;;;;;;;18.96;47.77;100300.72;15806411;28;20048;-62
2021/05/21 06:55:48;;;;;;;1999.90;999.90;;;;;;;19.07;47.86;100280.16;15803963;28;20466;-62
2021/05/21 07:03:20;;;;;;;1999.90;999.90;;;;;;;19.52;46.99;100270.09;15801746;28;20672;-62
2021/05/21 07:10:52;;;;;;;1999.90;999.90;;;;;;;20.36;43.39;100264.69;15800562;28;20051;-63
2021/05/21 07:18:25;;;;;;;1999.90;999.90;;;;;;;20.88;42.77;100250.72;15800739;28;20048;-63
2021/05/21 07:25:57;;;;;;;1999.90;999.90;;;;;;;21.00;41.97;100245.34;15800750;28;20115;-63
2021/05/21 07:33:32;;;;;;;1999.90;999.90;;;;;;;20.16;43.59;100231.19;15801481;28;20853;-63
2021/05/21 07:41:05;;;;;;;1999.90;999.90;;;;;;;21.09;41.80;100212.88;15801546;28;20043;-62
2021/05/21 07:48:37;;;;;;;1999.90;999.90;;;;;;;22.35;40.06;100191.34;15800930;28;20045;-62
2021/05/21 07:56:10;;;;;;;1999.90;999.90;;;;;;;22.53;38.42;100176.91;15800299;28;20040;-61
2021/05/21 08:03:41;;;;;;;1999.90;999.90;;;;;;;21.90;39.07;100172.38;15800386;28;20040;-63
2021/05/21 08:11:14;;;;;;;1999.90;999.90;;;;;;;22.95;38.54;100153.53;15799898;28;20051;-63
2021/05/21 08:18:47;;;;;;;1999.90;999.90;;;;;;;22.72;37.84;100140.06;15808529;28;20553;-64
2021/05/21 08:26:22;;;;;;;1999.90;999.90;;;;;;;22.46;38.74;100120.94;15780867;28;20052;-63
2021/05/21 08:33:54;;;;;;;1999.90;999.90;;;;;;;23.26;36.36;100110.72;15721610;28;20048;-64
2021/05/21 08:41:29;;;;;;;1999.90;999.90;;;;;;;24.75;35.44;100104.72;15693978;28;20131;-64
2021/05/21 08:49:01;;;;;;;1999.90;999.90;;;;;;;24.14;35.92;100104.50;15668996;28;20041;-64
2021/05/21 08:56:34;;;;;;;1999.90;999.90;;;;;;;24.41;34.84;100095.78;15683469;28;20045;-65
2021/05/21 09:04:06;;;;;;;;;;;;;;;23.65;36.30;100090.06;15684820;28;20095;-64
2021/05/21 09:11:41;;;;;;;1999.90;999.90;;;;;;;23.75;36.74;100079.69;15684490;28;19927;-64
2021/05/21 09:19:15;;;;;;;1999.90;999.90;;;;;;;24.37;35.53;100075.09;15684156;28;20052;-64
2021/05/21 09:26:49;;;;;;;1999.90;999.90;;;;;;;22.07;38.46;100062.63;15731761;28;20457;-64
2021/05/21 09:34:31;;;;;;;1999.90;999.90;;;;;;;22.32;38.10;100053.75;15744180;28;20044;-64
2021/05/21 09:42:05;;;;;;;1999.90;999.90;;;;;;;21.17;38.03;100049.91;15713717;28;20068;-63
2021/05/21 09:49:39;;;;;;;1999.90;999.90;;;;;;;23.28;34.79;100051.31;15681030;28;20057;-63
2021/05/21 09:57:12;;;;;;;1999.90;999.90;;;;;;;24.41;31.38;100048.13;15676545;28;20052;-64
2021/05/21 10:04:44;;;;;;;1999.90;999.90;;;;;;;25.63;31.19;100049.38;15681170;28;20052;-63
2021/05/21 10:12:17;;;;;;;1999.90;999.90;;;;;;;22.54;34.39;100034.31;15680734;28;20064;-64
2021/05/21 10:19:50;;;;;;;1999.90;999.90;;;;;;;23.80;32.29;100033.63;15679976;28;20086;-65
2021/05/21 10:27:28;;;;;;;1999.90;999.90;;;;;;;22.44;34.89;100047.47;15679440;28;20075;-64
2021/05/21 10:34:59;;;;;;;1999.90;999.90;;;;;;;25.54;30.29;100032.13;15678081;28;20195;-63
2021/05/21 10:42:52;;;;;;;1999.90;999.90;;;;;;;24.69;31.05;100005.88;15722449;28;20048;-64
2021/05/21 10:50:33;;;;;;;1999.90;999.90;;;;;;;24.58;32.41;100003.28;15739044;28;20049;-64
2021/05/21 10:58:06;;;;;;;1999.90;999.90;;;;;;;24.16;32.77;99993.69;15743301;28;20068;-63
2021/05/21 11:05:38;;;;;;;1999.90;999.90;;;;;;;24.98;30.88;99978.19;15794005;28;20503;-64
2021/05/21 11:13:13;;;;;;;1999.90;999.90;;;;;;;26.43;31.23;99963.63;15785077;28;20055;-63
2021/05/21 11:21:03;;;;;;;1999.90;999.90;;;;;;;25.04;30.98;99965.00;15783779;28;20048;-64
2021/05/21 11:28:40;;;;;;;1999.90;999.90;;;;;;;26.29;32.35;99964.09;15734904;28;20041;-63
2021/05/21 11:36:12;;;;;;;1999.90;999.90;;;;;;;25.61;31.74;99976.81;15734884;28;20140;-63
2021/05/21 11:43:45;;;;;;;1999.90;999.90;;;;;;;25.97;30.26;99961.47;15734654;28;20091;-61
2021/05/21 11:51:22;;;;;;;1999.90;999.90;;;;;;;26.03;29.77;99940.44;15742115;28;20509;-63
2021/05/21 11:59:00;;;;;;;1999.90;999.90;;;;;;;26.44;28.17;99930.91;15748438;28;20052;-62
2021/05/21 12:06:32;;;;;;;1999.90;999.90;;;;;;;25.81;29.36;99937.44;15732065;28;20084;-62
2021/05/21 12:14:07;;;;;;;1999.90;999.90;;;;;;;26.67;29.86;99948.94;15748116;28;20048;-62
2021/05/21 12:21:40;;;;;;;1999.90;999.90;;;;;;;26.13;30.56;99924.19;15729856;28;20071;-60
2021/05/21 12:29:13;;;;;;;1999.90;999.90;;;;;;;26.38;30.04;99898.47;15745813;28;20040;-60
2021/05/21 12:36:56;;;;;;;1999.90;999.90;;;;;;;25.31;31.25;99901.03;15748193;28;20353;-62
2021/05/21 12:44:28;;;;;;;1999.90;999.90;;;;;;;23.57;33.54;99901.47;15725788;28;20506;-61
2021/05/21 12:52:02;;;;;;;1999.90;999.90;;;;;;;26.51;30.19;99900.47;15686317;28;20097;-60
2021/05/21 12:59:37;;;;;;;1999.90;999.90;;;;;;;23.76;33.60;99891.28;15710029;28;20577;-64
2021/05/21 13:07:08;;;;;;;1999.90;999.90;;;;;;;23.86;32.30;99878.84;15746394;28;20067;-61
2021/05/21 13:14:44;;;;;;;1999.90;999.90;;;;;;;22.82;34.12;99873.75;15744829;28;20098;-64
2021/05/21 13:22:17;;;;;;;1999.90;999.90;;;;;;;22.10;33.78;99891.34;15745590;28;20486;-66
2021/05/21 13:29:50;;;;;;;1999.90;999.90;;;;;;;22.87;33.58;99869.63;15745335;28;20102;-65
2021/05/21 13:37:22;;;;;;;1999.90;999.90;;;;;;;23.15;33.11;99851.97;15697901;28;20049;-67
2021/05/21 13:44:54;;;;;;;1999.90;999.90;;;;;;;22.07;34.82;99862.97;15680790;28;20040;-63
2021/05/21 13:52:26;;;;;;;1999.90;999.90;;;;;;;21.84;36.23;99852.38;15687901;28;20090;-64
2021/05/21 13:59:58;;;;;;;1999.90;999.90;;;;;;;22.54;35.19;99860.13;15679219;28;20045;-63
2021/05/21 14:07:30;;;;;;;1999.90;999.90;;;;;;;22.16;34.24;99824.25;15681681;28;20056;-64
2021/05/21 14:15:03;;;;;;;1999.90;999.90;;;;;;;21.77;35.10;99844.78;15680084;28;20381;-64
2021/05/21 14:22:39;;;;;;;1999.90;999.90;;;;;;;21.94;35.15;99851.41;15678696;28;20049;-65
2021/05/21 14:30:13;;;;;;;1999.90;999.90;;;;;;;22.08;34.32;99825.63;15678192;28;20071;-65
2021/05/21 14:37:45;;;;;;;1999.90;999.90;;;;;;;22.05;35.87;99817.13;15678573;28;20128;-65
2021/05/21 14:45:18;;;;;;;1999.90;999.90;;;;;;;22.44;34.54;99816.44;15677285;28;20106;-62
2021/05/21 14:52:49;;;;;;;1999.90;999.90;;;;;;;22.24;34.87;99833.47;15682277;28;20052;-65
2021/05/21 15:00:23;;;;;;;1999.90;999.90;;;;;;;22.18;34.79;99820.97;15737887;28;20702;-63
2021/05/21 15:07:54;;;;;;;1999.90;999.90;;;;;;;22.22;35.48;99835.94;15737397;28;20047;-64
2021/05/21 15:15:33;;;;;;;1999.90;999.90;;;;;;;21.95;34.30;99820.97;15749225;28;20032;-63
2021/05/21 15:30:56;;;;;;;1999.90;999.90;;;;;;;21.70;35.55;99815.72;15766390;28;20072;-63
2021/05/21 15:38:28;;;;;;;1999.90;999.90;;;;;;;22.68;33.90;99817.19;15772292;28;20052;-63
2021/05/21 15:46:05;;;;;;;1999.90;999.90;;;;;;;22.51;33.25;99813.47;15751506;28;20090;-63
2021/05/21 15:53:55;;;;;;;1999.90;999.90;;;;;;;22.10;31.88;99814.66;15751151;28;20090;-66
2021/05/21 16:01:28;;;;;;;1999.90;999.90;;;;;;;21.53;34.34;99820.44;15749011;28;20070;-64
2021/05/21 16:09:00;;;;;;;;;;;;;;;21.57;33.16;99819.16;15748381;28;20162;-65
2021/05/21 16:16:33;;;;;;;1999.90;999.90;;;;;;;21.77;33.16;99810.69;15735963;28;20031;-65
2021/05/21 16:24:06;;;;;;;1999.90;999.90;;;;;;;21.75;33.39;99835.09;15726249;28;20071;-64
2021/05/21 16:31:39;;;;;;;1999.90;999.90;;;;;;;21.43;33.97;99827.88;15747808;28;20413;-64
2021/05/21 16:39:11;;;;;;;1999.90;999.90;;;;;;;21.30;34.50;99827.66;15747891;28;20048;-64
2021/05/21 16:46:44;;;;;;;1999.90;999.90;;;;;;;21.20;34.64;99827.78;15747826;28;20109;-63
2021/05/21 16:54:16;;;;;;;1999.90;999.90;;;;;;;21.07;34.89;99821.09;15755634;28;20055;-65
2021/05/21 17:01:48;;;;;;;1999.90;999.90;;;;;;;20.96;34.79;99826.91;15769782;28;20111;-64
2021/05/21 17:09:22;;;;;;;1999.90;999.90;;;;;;;21.04;35.22;99837.72;15795160;28;20076;-64
2021/05/21 17:48:24;;;;;;;1999.90;999.90;;;;;;;20.34;36.02;99842.19;15765650;28;20041;-64
2021/05/21 18:04:20;;;;;;;1999.90;999.90;;;;;;;19.74;39.70;99863.34;15566451;28;20139;-63
2021/05/21 18:12:01;;;;;;;1999.90;999.90;;;;;;;19.42;40.66;99844.53;15708502;28;20493;-63
2021/05/21 19:07:10;;;;;;;1999.90;999.90;;;;;;;18.20;47.43;99870.81;15721742;28;20133;-63
2021/05/21 19:14:49;;;;;;;1999.90;999.90;;;;;;;17.98;48.98;99873.66;15681078;28;20076;-62
2021/05/21 19:22:21;;;;;;;1999.90;999.90;;;;;;;17.65;46.88;99879.66;15680000;28;20114;-65
2021/05/21 19:29:57;;;;;;;1999.90;999.90;;;;;;;16.78;52.88;99879.78;15679248;28;20409;-62
2021/05/21 19:45:42;;;;;;;1999.90;999.90;;;;;;;16.47;53.00;99884.84;15677787;28;20094;-63
2021/05/21 20:16:42;;;;;;;1999.90;999.90;;;;;;;15.95;55.26;99875.63;15688618;28;20053;-63
2021/05/21 20:24:15;;;;;;;1999.90;999.90;;;;;;;15.95;55.51;99869.19;15687635;28;20441;-62
2021/05/21 20:39:55;;;;;;;1999.90;999.90;;;;;;;15.62;55.07;99881.34;15712447;28;20044;-63
2021/05/21 21:18:58;;;;;;;1999.90;999.90;;;;;;;14.56;56.72;99870.47;15737768;28;20040;-61
2021/05/21 21:42:45;;;;;;;1999.90;999.90;;;;;;;14.46;54.64;99871.13;15681169;28;20140;-64
2021/05/21 21:58:14;;;;;;;1999.90;999.90;;;;;;;14.82;51.41;99887.25;15680096;28;20048;-63
2021/05/21 22:13:44;;;;;;;1999.90;999.90;;;;;;;14.66;52.67;99886.63;15741457;28;20040;-63
2021/05/21 22:21:24;;;;;;;1999.90;999.90;;;;;;;14.52;53.87;99883.66;15740380;28;20045;-63
2021/05/21 22:28:56;;;;;;;1999.90;999.90;;;;;;;14.22;56.16;99869.53;15718824;28;20428;-63
2021/05/21 22:36:29;;;;;;;1999.90;999.90;;;;;;;13.60;57.87;99858.53;15667277;28;20406;-62
2021/05/21 22:44:01;;;;;;;1999.90;999.90;;;;;;;13.73;57.02;99859.97;15677002;28;20106;-63
2021/05/21 22:51:33;;;;;;;1999.90;999.90;;;;;;;13.76;55.21;99875.25;15693885;28;20516;-63
2021/05/21 22:59:06;;;;;;;1999.90;999.90;;;;;;;13.58;56.15;99884.13;15706817;28;20047;-63
2021/05/21 23:06:37;;;;;;;1999.90;999.90;;;;;;;13.75;54.64;99884.81;15775373;28;20150;-63
2021/05/21 23:14:09;;;;;;;1999.90;999.90;;;;;;;13.81;53.85;99895.34;15799499;28;20063;-64
2021/05/21 23:21:41;;;;;;;1999.90;999.90;;;;;;;13.83;53.27;99897.78;15775922;28;20062;-62
2021/05/21 23:29:13;;;;;;;1999.90;999.90;;;;;;;13.72;53.48;99911.59;15739680;28;20040;-65
2021/05/21 23:36:45;;;;;;;1999.90;999.90;;;;;;;13.40;54.15;99918.63;15747251;28;20141;-63
2021/05/21 23:44:18;;;;;;;1999.90;999.90;;;;;;;13.42;54.25;99913.44;15743330;28;20131;-63
2021/05/21 23:51:50;;;;;;;1999.90;999.90;;;;;;;13.26;54.54;99908.78;15750167;28;20180;-63
2021/05/21 23:59:23;;;;;;;1999.90;999.90;;;;;;;13.26;54.41;99900.38;15749309;28;20052;-63
